Time;durP1;ratioP1;P1;durP2;ratioP2;P2;SDS_P1;SDS_P2;PMS_P1;PMS_P2;Temp;Humidity;BMP_temperature;BMP_pressure;BME280_temperature;BME280_humidity;BME280_pressure;Samples;Min_cycle;Max_cycle;Signal;HPM_P1;HPM_P2
2023/04/13 00:01:47;;;;;;;;;;;7.60;86.10;;;;;;4946877;28;19930;-61
2023/04/13 00:04:13;;;;;;;;;;;7.60;86.10;;;;;;4940416;28;19937;-61
2023/04/13 00:06:41;;;;;;;;;;;7.50;86.00;;;;;;4952137;28;19934;-61
2023/04/13 00:09:09;;;;;;;;;;;7.50;86.10;;;;;;4949660;28;19989;-60
2023/04/13 00:11:37;;;;;;;;;;;7.40;86.00;;;;;;4944420;28;19937;-61
2023/04/13 00:14:05;;;;;;;;;;;7.40;86.00;;;;;;4937567;28;19934;-61
2023/04/13 00:16:32;;;;;;;;;;;7.50;85.90;;;;;;4965012;28;20016;-62
2023/04/13 00:18:58;;;;;;;;;;;7.40;85.80;;;;;;4948090;28;19939;-60
2023/04/13 00:21:26;;;;;;;;;;;7.40;85.80;;;;;;4951855;28;20653;-60
2023/04/13 00:23:53;;;;;;;;;;;7.40;85.70;;;;;;4947562;28;19941;-61
2023/04/13 00:26:23;;;;;;;;;;;7.40;85.60;;;;;;4953548;28;20497;-61
2023/04/13 00:28:50;;;;;;;;;;;7.40;85.40;;;;;;4943741;28;19934;-61
2023/04/13 00:31:18;;;;;;;;;;;7.40;85.30;;;;;;4949838;28;19938;-63
2023/04/13 00:33:44;;;;;;;;;;;7.40;85.40;;;;;;4945313;28;19934;-59
2023/04/13 00:36:11;;;;;;;;;;;7.40;85.40;;;;;;4947993;28;19930;-61
2023/04/13 00:38:38;;;;;;;;;;;7.40;85.40;;;;;;4963990;28;21118;-62
2023/04/13 00:41:07;;;;;;;;;;;7.40;85.30;;;;;;4946389;28;19926;-60
2023/04/13 00:43:35;;;;;;;;;;;7.30;85.40;;;;;;4950623;28;20552;-59
2023/04/13 00:46:02;;;;;;;;;;;7.30;85.40;;;;;;4949760;28;19932;-62
2023/04/13 00:48:29;;;;;;;;;;;7.30;85.40;;;;;;4950706;28;20021;-62
2023/04/13 00:50:55;;;;;;;;;;;7.20;85.60;;;;;;4952501;29;19949;-61
2023/04/13 00:53:23;;;;;;;;;;;7.20;85.70;;;;;;4967409;28;20037;-62
2023/04/13 00:55:51;;;;;;;;;;;7.20;85.60;;;;;;4949443;28;19930;-61
2023/04/13 00:58:18;;;;;;;;;;;7.20;85.80;;;;;;4951570;28;20041;-61
2023/04/13 01:00:46;;;;;;;;;;;7.20;86.00;;;;;;4952381;28;20405;-61
2023/04/13 01:03:13;;;;;;;;;;;7.20;85.90;;;;;;4952515;28;20338;-61
2023/04/13 01:05:49;;;;;;;;;;;7.20;85.90;;;;;;4951496;28;19949;-62
2023/04/13 01:08:20;;;;;;;;;;;7.30;85.90;;;;;;4951924;28;19949;-62
2023/04/13 01:10:50;;;;;;;;;;;7.20;85.90;;;;;;4951298;28;19937;-61
2023/04/13 01:13:20;;;;;;;;;;;7.20;85.90;;;;;;4951694;28;19941;-60
2023/04/13 01:15:55;;;;;;;;;;;7.10;85.90;;;;;;4964888;28;19930;-61
2023/04/13 01:18:24;;;;;;;;;;;7.10;85.90;;;;;;4950798;28;19930;-61
2023/04/13 01:20:52;;;;;;;;;;;7.00;85.80;;;;;;4949017;28;20009;-63
2023/04/13 01:23:24;;;;;;;;;;;7.00;85.80;;;;;;4951637;28;19930;-60
2023/04/13 01:25:55;;;;;;;;;;;7.00;85.70;;;;;;4950373;28;19941;-62
2023/04/13 01:28:23;;;;;;;;;;;7.00;85.80;;;;;;4949703;28;19937;-61
2023/04/13 01:30:51;;;;;;;;;;;7.00;85.70;;;;;;4966474;28;19930;-63
2023/04/13 01:33:19;;;;;;;;;;;6.90;85.70;;;;;;4967706;28;19937;-61
2023/04/13 01:35:46;;;;;;;;;;;7.00;85.60;;;;;;4960882;28;19981;-61
2023/04/13 01:38:15;;;;;;;;;;;6.90;85.40;;;;;;4951447;28;19981;-62
2023/04/13 01:40:43;;;;;;;;;;;7.00;85.30;;;;;;4951318;28;19930;-61
2023/04/13 01:43:10;;;;;;;;;;;7.00;85.30;;;;;;4950842;28;20787;-61
2023/04/13 01:45:59;;;;;;;;;;;6.90;85.20;;;;;;4964467;28;19934;-61
2023/04/13 01:48:28;;;;;;;;;;;6.90;85.30;;;;;;4944115;28;20294;-62
2023/04/13 01:51:03;;;;;;;;;;;6.90;85.50;;;;;;4950046;28;19930;-60
2023/04/13 01:53:42;;;;;;;;;;;6.90;85.40;;;;;;4950933;28;19930;-61
2023/04/13 01:56:12;;;;;;;;;;;6.90;85.20;;;;;;4966527;28;20330;-60
2023/04/13 01:58:40;;;;;;;;;;;6.90;85.20;;;;;;4964542;28;20330;-62
2023/04/13 02:01:14;;;;;;;;;;;6.90;85.20;;;;;;4949896;28;19930;-58
2023/04/13 02:03:42;;;;;;;;;;;6.80;85.20;;;;;;4965451;28;20385;-61
2023/04/13 02:06:09;;;;;;;;;;;6.90;85.10;;;;;;4965379;28;19927;-61
2023/04/13 02:08:39;;;;;;;;;;;6.80;85.10;;;;;;4966477;28;19934;-62
2023/04/13 02:11:06;;;;;;;;;;;6.80;85.00;;;;;;4949600;28;19930;-61
2023/04/13 02:13:33;;;;;;;;;;;6.80;85.00;;;;;;4958982;28;19926;-61
2023/04/13 02:16:02;;;;;;;;;;;6.80;85.00;;;;;;4948134;28;19937;-61
2023/04/13 02:18:30;;;;;;;;;;;6.70;85.10;;;;;;4950547;28;20025;-60
2023/04/13 02:21:02;;;;;;;;;;;6.70;85.20;;;;;;4950230;28;19933;-62
2023/04/13 02:23:30;;;;;;;;;;;6.70;85.10;;;;;;4965417;28;19933;-60
2023/04/13 02:25:57;;;;;;;;;;;6.70;85.00;;;;;;4950520;28;19953;-62
2023/04/13 02:28:25;;;;;;;;;;;6.70;84.80;;;;;;4964926;28;19934;-61
2023/04/13 02:30:51;;;;;;;;;;;6.70;85.00;;;;;;4949978;28;19938;-60
2023/04/13 02:33:20;;;;;;;;;;;6.70;84.80;;;;;;4965238;28;20297;-59
2023/04/13 02:35:49;;;;;;;;;;;6.70;84.90;;;;;;4950654;28;19926;-62
2023/04/13 02:38:17;;;;;;;;;;;6.70;85.10;;;;;;4948437;28;19973;-60
2023/04/13 02:40:53;;;;;;;;;;;6.70;85.00;;;;;;4964630;28;19926;-61
2023/04/13 02:43:21;;;;;;;;;;;6.70;84.80;;;;;;4965128;28;19930;-63
2023/04/13 02:45:48;;;;;;;;;;;6.70;84.80;;;;;;4949083;28;19930;-62
2023/04/13 02:48:16;;;;;;;;;;;6.60;84.60;;;;;;4950547;28;19934;-60
2023/04/13 02:50:43;;;;;;;;;;;6.70;84.30;;;;;;4950299;28;19937;-61
2023/04/13 02:53:18;;;;;;;;;;;6.70;83.90;;;;;;4950150;28;19937;-62
2023/04/13 02:55:49;;;;;;;;;;;6.60;83.90;;;;;;4948895;28;19954;-61
2023/04/13 02:58:16;;;;;;;;;;;6.60;83.70;;;;;;4949750;28;19949;-61
2023/04/13 03:00:48;;;;;;;;;;;6.60;83.80;;;;;;4965210;28;19934;-60
2023/04/13 03:03:19;;;;;;;;;;;6.70;83.40;;;;;;4960456;28;19930;-62
2023/04/13 03:05:49;;;;;;;;;;;6.70;83.60;;;;;;4964645;28;19942;-60
2023/04/13 03:08:19;;;;;;;;;;;6.70;83.70;;;;;;4962122;28;20021;-60
2023/04/13 03:10:59;;;;;;;;;;;6.60;84.10;;;;;;4948221;28;19937;-62
2023/04/13 03:13:26;;;;;;;;;;;6.50;84.20;;;;;;4956439;28;19930;-61
2023/04/13 03:15:56;;;;;;;;;;;6.50;84.10;;;;;;4952541;28;19926;-61
2023/04/13 03:18:26;;;;;;;;;;;6.50;84.30;;;;;;4947784;28;19937;-61
2023/04/13 03:20:53;;;;;;;;;;;6.40;84.50;;;;;;4949544;28;19949;-61
2023/04/13 03:23:24;;;;;;;;;;;6.40;84.50;;;;;;4949614;28;19930;-61
2023/04/13 03:25:51;;;;;;;;;;;6.40;84.40;;;;;;4949466;28;19931;-61
2023/04/13 03:28:21;;;;;;;;;;;6.40;84.40;;;;;;4944551;28;19970;-62
2023/04/13 03:30:47;;;;;;;;;;;6.40;84.30;;;;;;4964134;28;19957;-61
2023/04/13 03:33:15;;;;;;;;;;;6.30;84.60;;;;;;4956604;28;19930;-62
2023/04/13 03:35:41;;;;;;;;;;;6.20;84.80;;;;;;4946321;28;19934;-60
2023/04/13 03:38:16;;;;;;;;;;;6.20;85.00;;;;;;4959306;28;19931;-63
2023/04/13 03:40:47;;;;;;;;;;;6.20;85.40;;;;;;4962459;28;19941;-61
2023/04/13 03:43:15;;;;;;;;;;;6.20;85.70;;;;;;4946952;28;19938;-61
2023/04/13 03:45:45;;;;;;;;;;;6.20;85.80;;;;;;4943884;28;19974;-61
2023/04/13 03:48:15;;;;;;;;;;;6.20;85.90;;;;;;4945134;28;19933;-62
2023/04/13 03:50:42;;;;;;;;;;;6.20;86.00;;;;;;4942101;28;19930;-60
2023/04/13 03:53:10;;;;;;;;;;;6.30;86.10;;;;;;4964234;28;19926;-58
2023/04/13 03:55:37;;;;;;;;;;;6.30;86.00;;;;;;4945441;28;20001;-62
2023/04/13 03:58:08;;;;;;;;;;;6.30;86.20;;;;;;4944573;28;19930;-60
2023/04/13 04:00:35;;;;;;;;;;;6.30;86.10;;;;;;4948822;28;19930;-61
2023/04/13 04:03:16;;;;;;;;;;;6.30;86.10;;;;;;4948606;28;19927;-62
2023/04/13 04:06:05;;;;;;;;;;;6.40;86.00;;;;;;4949495;28;19965;-61
2023/04/13 04:08:33;;;;;;;;;;;6.40;85.60;;;;;;4951977;28;20393;-62
2023/04/13 04:11:04;;;;;;;;;;;6.50;85.70;;;;;;4954961;28;19962;-62
2023/04/13 04:13:33;;;;;;;;;;;6.60;85.60;;;;;;4941272;28;19941;-62
2023/04/13 04:16:07;;;;;;;;;;;6.50;85.80;;;;;;4962135;28;20053;-59
2023/04/13 04:18:36;;;;;;;;;;;6.60;85.30;;;;;;4946263;28;19927;-60
2023/04/13 04:21:03;;;;;;;;;;;6.70;84.90;;;;;;4944652;28;20017;-61
2023/04/13 04:23:33;;;;;;;;;;;6.70;84.50;;;;;;4962942;28;20018;-60
2023/04/13 04:26:04;;;;;;;;;;;6.80;84.20;;;;;;4962927;28;20009;-61
2023/04/13 04:28:41;;;;;;;;;;;6.80;84.30;;;;;;4945115;28;20360;-61
2023/04/13 04:31:12;;;;;;;;;;;6.90;84.10;;;;;;4959725;28;20341;-61
2023/04/13 04:33:43;;;;;;;;;;;6.90;83.90;;;;;;4960695;28;20006;-62
2023/04/13 04:36:12;;;;;;;;;;;6.90;83.70;;;;;;4962032;28;19926;-62
2023/04/13 04:38:48;;;;;;;;;;;6.90;83.60;;;;;;4960733;28;20317;-61
2023/04/13 04:41:20;;;;;;;;;;;7.00;83.40;;;;;;4945409;28;20001;-61
2023/04/13 04:43:55;;;;;;;;;;;7.00;83.60;;;;;;4946418;28;19930;-62
2023/04/13 04:46:26;;;;;;;;;;;7.00;83.40;;;;;;4961504;28;19937;-62
2023/04/13 04:48:59;;;;;;;;;;;7.00;83.30;;;;;;4966989;28;19930;-61
2023/04/13 04:51:26;;;;;;;;;;;7.00;83.60;;;;;;4962502;28;19926;-62
2023/04/13 04:53:56;;;;;;;;;;;7.00;83.50;;;;;;4951864;28;20061;-60
2023/04/13 04:56:24;;;;;;;;;;;7.10;83.30;;;;;;4967760;28;19934;-61
2023/04/13 04:58:54;;;;;;;;;;;7.10;83.50;;;;;;4951536;28;19934;-61
2023/04/13 05:01:28;;;;;;;;;;;7.10;83.40;;;;;;4952204;28;20025;-61
2023/04/13 05:04:04;;;;;;;;;;;7.10;82.60;;;;;;4951633;28;19926;-62
2023/04/13 05:06:39;;;;;;;;;;;7.10;82.90;;;;;;4952198;28;19937;-62
2023/04/13 05:09:07;;;;;;;;;;;7.10;82.90;;;;;;4953034;28;19937;-61
2023/04/13 05:11:36;;;;;;;;;;;7.10;82.90;;;;;;4968319;28;19938;-61
2023/04/13 05:14:06;;;;;;;;;;;7.20;83.10;;;;;;4965692;28;19926;-61
2023/04/13 05:16:33;;;;;;;;;;;7.20;83.00;;;;;;4946392;28;20013;-61
2023/04/13 05:19:07;;;;;;;;;;;7.20;82.60;;;;;;4951518;28;19926;-61
2023/04/13 05:21:48;;;;;;;;;;;7.20;83.00;;;;;;4941336;28;19926;-60
2023/04/13 05:24:14;;;;;;;;;;;7.20;82.50;;;;;;4959318;28;19930;-61
2023/04/13 05:26:42;;;;;;;;;;;7.20;82.50;;;;;;4950819;28;19927;-60
2023/04/13 05:29:12;;;;;;;;;;;7.20;82.20;;;;;;4952711;28;19926;-62
2023/04/13 05:31:42;;;;;;;;;;;7.20;82.10;;;;;;4966700;28;19957;-61
2023/04/13 05:34:08;;;;;;;;;;;7.20;82.00;;;;;;4951494;28;19926;-61
2023/04/13 05:36:38;;;;;;;;;;;7.20;81.80;;;;;;4968110;28;19926;-62
2023/04/13 05:39:10;;;;;;;;;;;7.20;81.70;;;;;;4950978;28;19955;-61
2023/04/13 05:41:37;;;;;;;;;;;7.20;81.80;;;;;;4952377;28;19930;-61
2023/04/13 05:44:04;;;;;;;;;;;7.20;81.60;;;;;;4963105;28;20378;-61
2023/04/13 05:46:34;;;;;;;;;;;7.30;81.50;;;;;;4948307;28;19934;-61
2023/04/13 05:49:05;;;;;;;;;;;7.30;81.40;;;;;;4957222;28;20002;-62
2023/04/13 05:51:32;;;;;;;;;;;7.30;81.60;;;;;;4962664;28;19937;-63
2023/04/13 05:53:59;;;;;;;;;;;7.30;81.50;;;;;;4947461;28;19934;-61
2023/04/13 05:56:28;;;;;;;;;;;7.30;81.30;;;;;;4955347;28;20018;-61
2023/04/13 05:58:55;;;;;;;;;;;7.40;81.20;;;;;;4961135;28;19930;-61
2023/04/13 06:01:28;;;;;;;;;;;7.30;81.00;;;;;;4961129;28;19942;-61
2023/04/13 06:03:56;;;;;;;;;;;7.40;81.10;;;;;;4956477;28;19974;-61
2023/04/13 06:06:24;;;;;;;;;;;7.40;81.20;;;;;;4957298;28;19930;-62
2023/04/13 06:08:51;;;;;;;;;;;7.40;80.90;;;;;;4948464;28;19927;-61
2023/04/13 06:11:19;;;;;;;;;;;7.40;81.00;;;;;;4948917;28;19927;-61
2023/04/13 06:13:46;;;;;;;;;;;7.40;81.00;;;;;;4947552;28;19989;-61
2023/04/13 06:16:14;;;;;;;;;;;7.40;80.80;;;;;;4948723;28;19935;-62
2023/04/13 06:18:40;;;;;;;;;;;7.40;80.30;;;;;;4948447;28;20018;-63
2023/04/13 06:21:09;;;;;;;;;;;7.50;80.50;;;;;;4956917;28;19930;-61
2023/04/13 06:23:36;;;;;;;;;;;7.50;80.40;;;;;;4948941;28;20411;-61
2023/04/13 06:26:09;;;;;;;;;;;7.40;80.50;;;;;;4963283;28;19957;-61
2023/04/13 06:28:56;;;;;;;;;;;7.50;80.50;;;;;;4949581;28;19935;-61
2023/04/13 06:31:26;;;;;;;;;;;7.50;80.40;;;;;;4946133;28;19926;-62
2023/04/13 06:33:54;;;;;;;;;;;7.60;80.50;;;;;;4959457;28;19926;-63
2023/04/13 06:36:29;;;;;;;;;;;7.60;80.50;;;;;;4960890;28;19935;-61
2023/04/13 06:38:58;;;;;;;;;;;7.60;80.50;;;;;;4947880;28;19926;-63
2023/04/13 06:41:26;;;;;;;;;;;7.70;80.50;;;;;;4949230;28;19941;-62
2023/04/13 06:44:07;;;;;;;;;;;7.70;80.60;;;;;;4963642;28;20021;-61
2023/04/13 06:46:39;;;;;;;;;;;7.70;80.30;;;;;;4947671;28;19930;-62
2023/04/13 06:49:12;;;;;;;;;;;7.70;80.30;;;;;;4963308;28;20378;-61
2023/04/13 06:51:42;;;;;;;;;;;7.70;80.30;;;;;;4963271;28;19926;-62
2023/04/13 06:54:09;;;;;;;;;;;7.70;80.40;;;;;;4961904;28;19930;-61
2023/04/13 06:56:41;;;;;;;;;;;7.70;80.50;;;;;;4965175;28;19949;-61
2023/04/13 06:59:08;;;;;;;;;;;7.70;80.50;;;;;;4962030;28;20400;-61
2023/04/13 07:01:35;;;;;;;;;;;7.80;80.50;;;;;;4950186;28;20421;-63
2023/04/13 07:04:02;;;;;;;;;;;7.80;80.40;;;;;;4950742;28;19934;-62
2023/04/13 07:06:31;;;;;;;;;;;7.80;80.30;;;;;;4945437;28;19993;-59
2023/04/13 07:08:59;;;;;;;;;;;7.80;80.20;;;;;;4958596;28;20317;-60
2023/04/13 07:11:27;;;;;;;;;;;7.90;80.30;;;;;;4947885;28;19935;-61
2023/04/13 07:13:54;;;;;;;;;;;8.00;80.20;;;;;;4965980;28;19954;-62
2023/04/13 07:16:21;;;;;;;;;;;8.00;79.90;;;;;;4962415;28;19993;-63
2023/04/13 07:18:47;;;;;;;;;;;8.00;80.00;;;;;;4949376;28;19931;-62
2023/04/13 07:21:14;;;;;;;;;;;8.00;80.00;;;;;;4961686;28;19981;-62
2023/04/13 07:23:53;;;;;;;;;;;8.00;80.00;;;;;;4956935;28;20434;-62
2023/04/13 07:26:21;;;;;;;;;;;8.00;79.80;;;;;;4950003;28;20058;-61
2023/04/13 07:28:48;;;;;;;;;;;8.00;79.70;;;;;;4942148;28;19934;-62
2023/04/13 07:31:16;;;;;;;;;;;8.10;79.60;;;;;;4951188;28;20045;-62
2023/04/13 07:33:47;;;;;;;;;;;8.10;79.40;;;;;;4961577;28;19937;-60
2023/04/13 07:36:17;;;;;;;;;;;8.10;79.40;;;;;;4957501;28;19937;-62
2023/04/13 07:38:48;;;;;;;;;;;8.10;79.30;;;;;;4959143;28;20072;-62
2023/04/13 07:41:20;;;;;;;;;;;8.10;79.30;;;;;;4943895;28;19977;-62
2023/04/13 07:43:50;;;;;;;;;;;8.10;79.20;;;;;;4962353;28;19938;-61
2023/04/13 07:46:19;;;;;;;;;;;8.10;79.10;;;;;;4943276;28;19930;-60
2023/04/13 07:48:46;;;;;;;;;;;8.20;79.00;;;;;;4961135;28;19934;-62
2023/04/13 07:51:23;;;;;;;;;;;8.20;79.10;;;;;;4945178;28;19935;-62
2023/04/13 07:53:51;;;;;;;;;;;8.20;79.20;;;;;;4960376;28;20025;-61
2023/04/13 07:56:18;;;;;;;;;;;8.20;79.00;;;;;;4957658;28;19931;-61
2023/04/13 07:58:45;;;;;;;;;;;8.20;79.00;;;;;;4959178;28;19933;-61
2023/04/13 08:01:13;;;;;;;;;;;8.20;79.00;;;;;;4945361;28;19941;-63
2023/04/13 08:03:41;;;;;;;;;;;8.20;78.90;;;;;;4943353;28;20025;-61
2023/04/13 08:06:15;;;;;;;;;;;8.30;78.90;;;;;;4958393;28;20444;-63
2023/04/13 08:08:42;;;;;;;;;;;8.30;78.80;;;;;;4943985;28;19938;-60
2023/04/13 08:11:09;;;;;;;;;;;8.30;78.90;;;;;;4949880;28;19952;-61
2023/04/13 08:13:36;;;;;;;;;;;8.30;78.90;;;;;;4945542;28;19931;-61
2023/04/13 08:16:03;;;;;;;;;;;8.30;78.90;;;;;;4943489;28;19969;-62
2023/04/13 08:18:32;;;;;;;;;;;8.40;79.00;;;;;;4963213;28;19930;-61
2023/04/13 08:20:59;;;;;;;;;;;8.30;78.80;;;;;;4944854;28;19942;-61
2023/04/13 08:23:28;;;;;;;;;;;8.40;78.60;;;;;;4951180;28;19930;-62
2023/04/13 08:26:01;;;;;;;;;;;8.40;78.50;;;;;;4961937;28;19930;-61
2023/04/13 08:28:27;;;;;;;;;;;8.40;78.60;;;;;;4951749;28;19937;-61
2023/04/13 08:30:54;;;;;;;;;;;8.40;78.80;;;;;;4948726;28;19938;-59
2023/04/13 08:33:21;;;;;;;;;;;8.50;78.80;;;;;;4950527;28;19931;-61
2023/04/13 08:35:50;;;;;;;;;;;8.60;78.50;;;;;;4948144;28;20005;-61
2023/04/13 08:38:18;;;;;;;;;;;8.60;78.50;;;;;;4948453;28;19966;-61
2023/04/13 08:40:48;;;;;;;;;;;8.60;78.40;;;;;;4951598;28;19936;-62
2023/04/13 08:43:19;;;;;;;;;;;8.70;78.20;;;;;;4948095;28;19931;-61
2023/04/13 08:45:46;;;;;;;;;;;8.70;77.80;;;;;;4949224;28;20696;-61
2023/04/13 08:48:13;;;;;;;;;;;8.70;77.90;;;;;;4950340;28;19926;-61
2023/04/13 08:50:42;;;;;;;;;;;8.70;77.90;;;;;;4945960;28;19927;-60
2023/04/13 08:53:11;;;;;;;;;;;8.70;78.00;;;;;;4959653;28;19930;-61
2023/04/13 08:55:42;;;;;;;;;;;8.80;78.00;;;;;;4968322;28;19942;-62
2023/04/13 08:58:11;;;;;;;;;;;8.80;77.70;;;;;;4947762;28;20034;-60
2023/04/13 09:00:40;;;;;;;;;;;8.80;77.60;;;;;;4961302;28;20029;-61
2023/04/13 09:03:09;;;;;;;;;;;8.90;77.60;;;;;;4947116;28;19927;-60
2023/04/13 09:05:41;;;;;;;;;;;8.90;77.60;;;;;;4965860;28;19926;-61
2023/04/13 09:08:12;;;;;;;;;;;8.90;77.40;;;;;;4964153;28;19978;-62
2023/04/13 09:10:42;;;;;;;;;;;8.90;77.40;;;;;;4950836;28;19938;-60
2023/04/13 09:13:09;;;;;;;;;;;8.90;77.50;;;;;;4950321;28;20021;-61
2023/04/13 09:15:36;;;;;;;;;;;8.90;77.40;;;;;;4948363;28;19941;-61
2023/04/13 09:18:19;;;;;;;;;;;8.90;77.40;;;;;;4948855;28;19931;-60
2023/04/13 09:20:55;;;;;;;;;;;9.00;77.20;;;;;;4964476;28;19926;-62
2023/04/13 09:23:22;;;;;;;;;;;9.00;77.40;;;;;;4949285;28;20582;-62
2023/04/13 09:25:52;;;;;;;;;;;9.00;77.30;;;;;;4950830;28;19930;-62
2023/04/13 09:28:20;;;;;;;;;;;9.10;77.20;;;;;;4948413;28;19974;-62
2023/04/13 09:30:47;;;;;;;;;;;9.10;77.20;;;;;;4944878;28;19934;-64
2023/04/13 09:33:14;;;;;;;;;;;9.10;77.10;;;;;;4949711;28;20413;-60
2023/04/13 09:35:41;;;;;;;;;;;9.10;77.30;;;;;;4945023;28;20313;-62
2023/04/13 09:38:10;;;;;;;;;;;9.10;77.00;;;;;;4948002;28;20631;-62
2023/04/13 09:40:47;;;;;;;;;;;9.20;77.00;;;;;;4950483;28;19953;-62
2023/04/13 09:43:15;;;;;;;;;;;9.20;76.90;;;;;;4951185;28;20381;-62
2023/04/13 09:45:44;;;;;;;;;;;9.20;76.50;;;;;;4946503;28;19989;-62
2023/04/13 09:48:19;;;;;;;;;;;9.20;76.60;;;;;;4947242;28;20374;-62
2023/04/13 09:50:46;;;;;;;;;;;9.30;76.60;;;;;;4948873;28;20374;-62
2023/04/13 09:53:12;;;;;;;;;;;9.30;76.70;;;;;;4950269;28;19930;-61
2023/04/13 09:55:39;;;;;;;;;;;9.30;76.60;;;;;;4949445;28;19977;-62
2023/04/13 09:58:10;;;;;;;;;;;9.30;76.40;;;;;;4949391;28;19926;-61
2023/04/13 10:00:38;;;;;;;;;;;9.30;76.50;;;;;;4950255;28;20017;-62
2023/04/13 10:03:09;;;;;;;;;;;9.40;76.40;;;;;;4947186;28;20036;-61
2023/04/13 10:05:36;;;;;;;;;;;9.40;76.30;;;;;;4946995;28;19930;-62
2023/04/13 10:08:03;;;;;;;;;;;9.40;76.30;;;;;;4962254;28;19962;-62
2023/04/13 10:10:29;;;;;;;;;;;9.50;76.20;;;;;;4947488;28;19934;-61
2023/04/13 10:12:58;;;;;;;;;;;9.50;76.30;;;;;;4950264;28;20021;-61
2023/04/13 10:15:31;;;;;;;;;;;9.50;76.10;;;;;;4943644;28;19941;-63
2023/04/13 10:18:06;;;;;;;;;;;9.60;76.20;;;;;;4951773;29;19954;-60
2023/04/13 10:20:34;;;;;;;;;;;9.60;76.40;;;;;;4947113;28;19937;-62
2023/04/13 10:23:01;;;;;;;;;;;9.60;76.40;;;;;;4948711;28;19930;-61
2023/04/13 10:25:28;;;;;;;;;;;9.60;76.40;;;;;;4947697;28;19926;-61
2023/04/13 10:27:58;;;;;;;;;;;9.60;76.30;;;;;;4950422;28;19926;-62
2023/04/13 10:30:25;;;;;;;;;;;9.60;76.20;;;;;;4945446;28;19926;-61
2023/04/13 10:33:04;;;;;;;;;;;9.60;76.30;;;;;;4950708;28;19938;-61
2023/04/13 10:35:33;;;;;;;;;;;9.60;76.20;;;;;;4946297;28;20712;-62
2023/04/13 10:37:59;;;;;;;;;;;9.60;76.20;;;;;;4949675;28;19927;-61
2023/04/13 10:40:26;;;;;;;;;;;9.70;76.10;;;;;;4947725;28;19973;-60
2023/04/13 10:42:53;;;;;;;;;;;9.70;76.10;;;;;;4949106;28;20036;-60
2023/04/13 10:45:21;;;;;;;;;;;9.80;76.10;;;;;;4963780;28;19949;-62
2023/04/13 10:47:47;;;;;;;;;;;9.80;75.80;;;;;;4949275;28;19941;-62
2023/04/13 10:50:19;;;;;;;;;;;10.00;75.50;;;;;;4948162;28;20029;-62
2023/04/13 10:52:56;;;;;;;;;;;10.10;75.50;;;;;;4951101;28;20555;-62
2023/04/13 10:55:23;;;;;;;;;;;10.20;75.20;;;;;;4949227;28;19926;-62
2023/04/13 10:57:50;;;;;;;;;;;10.20;75.30;;;;;;4948769;28;19940;-62
2023/04/13 11:00:20;;;;;;;;;;;10.20;75.40;;;;;;4943216;28;20461;-62
2023/04/13 11:02:48;;;;;;;;;;;10.10;75.40;;;;;;4948707;28;19934;-62
2023/04/13 11:05:15;;;;;;;;;;;10.10;75.70;;;;;;4947692;28;19927;-61
2023/04/13 11:07:44;;;;;;;;;;;10.10;76.40;;;;;;4948608;28;19926;-62
2023/04/13 11:10:11;;;;;;;;;;;10.10;76.60;;;;;;4948036;28;19935;-61
2023/04/13 11:12:38;;;;;;;;;;;10.10;76.70;;;;;;4948945;28;19927;-60
2023/04/13 11:15:05;;;;;;;;;;;10.20;76.70;;;;;;4947272;28;19926;-60
2023/04/13 11:17:32;;;;;;;;;;;10.20;76.70;;;;;;4949879;28;19926;-60
2023/04/13 11:20:00;;;;;;;;;;;10.40;76.70;;;;;;4947042;28;19934;-60
2023/04/13 11:22:35;;;;;;;;;;;10.60;76.60;;;;;;4949464;28;20402;-61
2023/04/13 11:25:09;;;;;;;;;;;10.80;76.80;;;;;;4946666;28;20133;-60
2023/04/13 11:27:36;;;;;;;;;;;11.00;76.40;;;;;;4950277;28;19934;-62
2023/04/13 11:30:05;;;;;;;;;;;11.10;75.70;;;;;;4946188;28;19977;-63
2023/04/13 11:32:32;;;;;;;;;;;11.00;75.30;;;;;;4945601;28;19931;-61
2023/04/13 11:35:07;;;;;;;;;;;11.10;75.00;;;;;;4946075;28;19927;-61
2023/04/13 11:37:35;;;;;;;;;;;11.10;74.90;;;;;;4949273;28;19930;-64
2023/04/13 11:40:15;;;;;;;;;;;11.20;74.40;;;;;;4948347;28;20012;-62
2023/04/13 11:42:44;;;;;;;;;;;11.30;74.40;;;;;;4946762;28;19927;-61
2023/04/13 11:45:13;;;;;;;;;;;11.40;74.00;;;;;;4950116;28;19954;-61
2023/04/13 11:47:40;;;;;;;;;;;11.60;74.10;;;;;;4947838;28;20029;-61
2023/04/13 11:50:08;;;;;;;;;;;11.70;73.70;;;;;;4956379;28;19926;-61
2023/04/13 11:52:35;;;;;;;;;;;11.70;73.20;;;;;;4948973;28;19934;-61
2023/04/13 11:55:03;;;;;;;;;;;11.70;73.20;;;;;;4950523;28;19937;-61
2023/04/13 11:57:31;;;;;;;;;;;12.00;72.90;;;;;;4948370;28;20494;-61
2023/04/13 11:59:59;;;;;;;;;;;12.20;72.20;;;;;;4944822;28;19935;-61
2023/04/13 12:02:26;;;;;;;;;;;12.40;72.20;;;;;;4949098;28;20365;-61
2023/04/13 12:04:53;;;;;;;;;;;12.40;71.80;;;;;;4945296;28;19931;-59
2023/04/13 12:07:20;;;;;;;;;;;12.40;71.00;;;;;;4947677;28;20290;-61
2023/04/13 12:09:47;;;;;;;;;;;12.40;70.80;;;;;;4945584;28;20289;-61
2023/04/13 12:12:17;;;;;;;;;;;12.40;70.40;;;;;;4949551;28;19934;-61
2023/04/13 12:14:51;;;;;;;;;;;12.50;70.00;;;;;;4949458;28;19934;-59
2023/04/13 12:17:19;;;;;;;;;;;12.60;69.60;;;;;;4947593;28;19931;-61
2023/04/13 12:19:49;;;;;;;;;;;12.60;69.30;;;;;;4938057;28;19941;-60
2023/04/13 12:22:16;;;;;;;;;;;12.50;68.90;;;;;;4942676;28;19930;-61
2023/04/13 12:24:42;;;;;;;;;;;12.50;68.90;;;;;;4945945;28;20309;-61
2023/04/13 12:27:09;;;;;;;;;;;12.40;69.40;;;;;;4946085;28;19941;-60
2023/04/13 12:29:36;;;;;;;;;;;12.60;69.20;;;;;;4941626;28;19959;-60
2023/04/13 12:32:07;;;;;;;;;;;12.70;69.20;;;;;;4946793;28;19926;-61
2023/04/13 12:34:35;;;;;;;;;;;13.00;68.80;;;;;;4943451;28;20374;-61
2023/04/13 12:37:02;;;;;;;;;;;13.20;68.90;;;;;;4942623;28;19934;-63
2023/04/13 12:39:29;;;;;;;;;;;13.10;68.50;;;;;;4941012;28;20139;-62
2023/04/13 12:41:56;;;;;;;;;;;13.00;67.90;;;;;;4945918;28;19927;-60
2023/04/13 12:44:23;;;;;;;;;;;12.90;68.30;;;;;;4945805;28;19935;-61
2023/04/13 12:46:50;;;;;;;;;;;12.70;67.20;;;;;;4946140;28;19931;-61
2023/04/13 12:49:16;;;;;;;;;;;12.70;67.60;;;;;;4947678;28;19930;-62
2023/04/13 12:51:45;;;;;;;;;;;12.90;67.90;;;;;;4944434;28;19930;-62
2023/04/13 12:54:13;;;;;;;;;;;13.00;67.90;;;;;;4947943;28;19938;-62
2023/04/13 12:56:40;;;;;;;;;;;13.00;67.60;;;;;;4947909;28;19946;-62
2023/04/13 12:59:07;;;;;;;;;;;13.10;67.50;;;;;;4946772;28;19954;-62
2023/04/13 13:01:36;;;;;;;;;;;13.00;67.80;;;;;;4946881;28;20025;-62
2023/04/13 13:04:03;;;;;;;;;;;13.10;67.70;;;;;;4942152;28;19937;-63
2023/04/13 13:06:29;;;;;;;;;;;13.00;67.50;;;;;;4947211;28;19934;-62
2023/04/13 13:08:58;;;;;;;;;;;13.00;67.70;;;;;;4948426;28;19934;-61
2023/04/13 13:11:24;;;;;;;;;;;12.90;66.50;;;;;;4952487;28;19950;-62
2023/04/13 13:13:51;;;;;;;;;;;12.90;65.40;;;;;;4950883;28;20321;-61
2023/04/13 13:16:18;;;;;;;;;;;13.00;65.40;;;;;;4949565;28;20160;-61
2023/04/13 13:18:45;;;;;;;;;;;13.00;65.10;;;;;;4950022;28;19927;-62
2023/04/13 13:21:11;;;;;;;;;;;13.00;65.20;;;;;;4951358;28;19934;-62
2023/04/13 13:23:38;;;;;;;;;;;13.00;64.50;;;;;;4948660;28;20306;-62
2023/04/13 13:26:06;;;;;;;;;;;13.00;64.30;;;;;;4949240;28;20058;-62
2023/04/13 13:28:33;;;;;;;;;;;13.10;65.50;;;;;;4949712;28;19937;-62
2023/04/13 13:31:00;;;;;;;;;;;13.20;64.70;;;;;;4952485;28;19934;-62
2023/04/13 13:33:27;;;;;;;;;;;13.10;65.00;;;;;;4964593;28;20352;-62
2023/04/13 13:35:53;;;;;;;;;;;13.10;65.90;;;;;;4953375;28;19946;-61
2023/04/13 13:38:20;;;;;;;;;;;13.00;66.00;;;;;;4949580;28;20293;-61
2023/04/13 13:40:47;;;;;;;;;;;12.90;66.00;;;;;;4952343;28;19933;-62
2023/04/13 13:43:20;;;;;;;;;;;12.70;66.20;;;;;;4953020;28;19930;-61
2023/04/13 13:45:46;;;;;;;;;;;12.60;66.70;;;;;;4951039;28;19933;-60
2023/04/13 13:48:13;;;;;;;;;;;12.40;67.40;;;;;;4962891;28;20904;-63
2023/04/13 13:50:49;;;;;;;;;;;12.20;68.70;;;;;;4966171;28;19945;-61
2023/04/13 13:53:15;;;;;;;;;;;12.10;70.60;;;;;;4966938;28;19948;-61
2023/04/13 13:55:42;;;;;;;;;;;11.80;72.00;;;;;;4952284;28;19926;-62
2023/04/13 13:58:09;;;;;;;;;;;11.70;73.30;;;;;;4950275;28;20467;-63
2023/04/13 14:00:38;;;;;;;;;;;11.50;74.60;;;;;;4952548;29;19936;-62
2023/04/13 14:03:05;;;;;;;;;;;11.70;74.70;;;;;;4951752;28;19978;-61
2023/04/13 14:05:31;;;;;;;;;;;11.60;74.50;;;;;;4950897;28;20396;-62
2023/04/13 14:08:01;;;;;;;;;;;11.50;75.00;;;;;;4954104;28;19930;-62
2023/04/13 14:10:28;;;;;;;;;;;11.50;75.60;;;;;;4950487;28;19940;-61
2023/04/13 14:12:55;;;;;;;;;;;11.50;76.70;;;;;;4951687;28;19930;-62
2023/04/13 14:15:22;;;;;;;;;;;11.60;76.40;;;;;;4951185;28;19930;-61
2023/04/13 14:17:50;;;;;;;;;;;11.60;76.60;;;;;;4951533;28;20354;-61
2023/04/13 14:20:16;;;;;;;;;;;11.70;75.90;;;;;;4951616;28;19942;-60
2023/04/13 14:22:43;;;;;;;;;;;11.60;76.10;;;;;;4951425;28;19927;-61
2023/04/13 14:25:10;;;;;;;;;;;11.60;76.10;;;;;;4945831;28;19956;-63
2023/04/13 14:27:37;;;;;;;;;;;11.50;76.70;;;;;;4947918;28;19937;-61
2023/04/13 14:30:04;;;;;;;;;;;11.30;76.40;;;;;;4951280;28;19930;-62
2023/04/13 14:32:31;;;;;;;;;;;11.40;75.90;;;;;;4951432;28;20460;-61
2023/04/13 14:35:00;;;;;;;;;;;11.30;75.70;;;;;;4951486;28;19934;-61
2023/04/13 14:37:27;;;;;;;;;;;11.30;75.00;;;;;;4951939;28;19934;-61